sensor_id;sensor_type;location;lat;lon;timestamp;P1;durP1;ratioP1;P2;durP2;ratioP2
32321;SDS011;61553;48.994;8.940;2022-11-10T00:01:51;14.30;;;6.78;;
32321;SDS011;61553;48.994;8.940;2022-11-10T00:04:17;13.90;;;6.15;;
32321;SDS011;61553;48.994;8.940;2022-11-10T00:06:45;12.85;;;5.82;;
32321;SDS011;61553;48.994;8.940;2022-11-10T00:09:11;17.73;;;6.50;;
32321;SDS011;61553;48.994;8.940;2022-11-10T00:11:37;16.20;;;6.07;;
32321;SDS011;61553;48.994;8.940;2022-11-10T00:14:03;13.20;;;6.65;;
32321;SDS011;61553;48.994;8.940;2022-11-10T00:16:47;14.32;;;6.75;;
32321;SDS011;61553;48.994;8.940;2022-11-10T00:19:28;12.60;;;6.45;;
32321;SDS011;61553;48.994;8.940;2022-11-10T00:24:24;9.85;;;5.80;;
32321;SDS011;61553;48.994;8.940;2022-11-10T00:26:50;12.18;;;5.43;;
32321;SDS011;61553;48.994;8.940;2022-11-10T00:29:16;10.45;;;6.07;;
32321;SDS011;61553;48.994;8.940;2022-11-10T00:31:42;12.48;;;5.70;;
32321;SDS011;61553;48.994;8.940;2022-11-10T00:34:10;12.60;;;6.78;;
32321;SDS011;61553;48.994;8.940;2022-11-10T00:36:37;16.95;;;6.28;;
32321;SDS011;61553;48.994;8.940;2022-11-10T00:39:03;14.45;;;5.82;;
32321;SDS011;61553;48.994;8.940;2022-11-10T00:41:29;10.93;;;5.90;;
32321;SDS011;61553;48.994;8.940;2022-11-10T00:43:54;12.25;;;6.57;;
32321;SDS011;61553;48.994;8.940;2022-11-10T00:46:20;13.25;;;6.78;;
32321;SDS011;61553;48.994;8.940;2022-11-10T00:48:46;13.05;;;6.68;;
32321;SDS011;61553;48.994;8.940;2022-11-10T00:51:21;12.07;;;6.32;;
32321;SDS011;61553;48.994;8.940;2022-11-10T00:53:49;13.02;;;6.45;;
32321;SDS011;61553;48.994;8.940;2022-11-10T00:56:15;12.90;;;7.07;;
32321;SDS011;61553;48.994;8.940;2022-11-10T00:58:41;12.20;;;6.70;;
32321;SDS011;61553;48.994;8.940;2022-11-10T01:01:07;13.95;;;6.68;;
32321;SDS011;61553;48.994;8.940;2022-11-10T01:03:34;10.95;;;6.25;;
32321;SDS011;61553;48.994;8.940;2022-11-10T01:06:09;13.63;;;6.40;;
32321;SDS011;61553;48.994;8.940;2022-11-10T01:08:37;11.40;;;6.05;;
32321;SDS011;61553;48.994;8.940;2022-11-10T01:11:13;16.70;;;7.22;;
32321;SDS011;61553;48.994;8.940;2022-11-10T01:13:44;14.93;;;6.35;;
32321;SDS011;61553;48.994;8.940;2022-11-10T01:16:15;16.55;;;5.60;;
32321;SDS011;61553;48.994;8.940;2022-11-10T01:21:09;12.57;;;5.10;;
32321;SDS011;61553;48.994;8.940;2022-11-10T01:23:35;8.73;;;4.32;;
32321;SDS011;61553;48.994;8.940;2022-11-10T01:26:03;10.50;;;5.15;;
32321;SDS011;61553;48.994;8.940;2022-11-10T01:28:30;12.75;;;4.97;;
32321;SDS011;61553;48.994;8.940;2022-11-10T01:31:00;11.13;;;4.82;;
32321;SDS011;61553;48.994;8.940;2022-11-10T01:33:27;12.18;;;5.07;;
32321;SDS011;61553;48.994;8.940;2022-11-10T01:35:53;12.82;;;4.30;;
32321;SDS011;61553;48.994;8.940;2022-11-10T01:38:20;9.27;;;4.40;;
32321;SDS011;61553;48.994;8.940;2022-11-10T01:40:46;10.63;;;4.70;;
32321;SDS011;61553;48.994;8.940;2022-11-10T01:43:12;9.57;;;4.57;;
32321;SDS011;61553;48.994;8.940;2022-11-10T01:48:11;16.47;;;5.20;;
32321;SDS011;61553;48.994;8.940;2022-11-10T01:51:04;15.38;;;5.95;;
32321;SDS011;61553;48.994;8.940;2022-11-10T01:53:34;15.98;;;6.15;;
32321;SDS011;61553;48.994;8.940;2022-11-10T01:56:04;17.42;;;7.18;;
32321;SDS011;61553;48.994;8.940;2022-11-10T01:58:33;16.40;;;7.07;;
32321;SDS011;61553;48.994;8.940;2022-11-10T02:01:04;14.35;;;8.43;;
32321;SDS011;61553;48.994;8.940;2022-11-10T02:03:33;26.65;;;12.00;;
32321;SDS011;61553;48.994;8.940;2022-11-10T02:06:03;25.63;;;9.10;;
32321;SDS011;61553;48.994;8.940;2022-11-10T02:08:29;13.85;;;6.65;;
32321;SDS011;61553;48.994;8.940;2022-11-10T02:10:54;15.77;;;6.53;;
32321;SDS011;61553;48.994;8.940;2022-11-10T02:13:20;14.38;;;6.05;;
32321;SDS011;61553;48.994;8.940;2022-11-10T02:15:46;17.73;;;7.60;;
32321;SDS011;61553;48.994;8.940;2022-11-10T02:18:11;14.07;;;6.47;;
32321;SDS011;61553;48.994;8.940;2022-11-10T02:20:37;10.10;;;6.72;;
32321;SDS011;61553;48.994;8.940;2022-11-10T02:23:13;10.10;;;5.93;;
32321;SDS011;61553;48.994;8.940;2022-11-10T02:25:59;16.23;;;5.97;;
32321;SDS011;61553;48.994;8.940;2022-11-10T02:28:27;13.20;;;5.57;;
32321;SDS011;61553;48.994;8.940;2022-11-10T02:30:58;9.45;;;5.28;;
32321;SDS011;61553;48.994;8.940;2022-11-10T02:33:23;16.85;;;6.40;;
32321;SDS011;61553;48.994;8.940;2022-11-10T02:35:49;14.57;;;5.97;;
32321;SDS011;61553;48.994;8.940;2022-11-10T02:38:15;13.40;;;5.93;;
32321;SDS011;61553;48.994;8.940;2022-11-10T02:40:42;14.07;;;6.35;;
32321;SDS011;61553;48.994;8.940;2022-11-10T02:43:08;11.07;;;5.38;;
32321;SDS011;61553;48.994;8.940;2022-11-10T02:45:38;10.95;;;5.72;;
32321;SDS011;61553;48.994;8.940;2022-11-10T02:48:08;13.57;;;6.75;;
32321;SDS011;61553;48.994;8.940;2022-11-10T02:50:34;12.35;;;5.80;;
32321;SDS011;61553;48.994;8.940;2022-11-10T02:53:00;12.57;;;6.65;;
32321;SDS011;61553;48.994;8.940;2022-11-10T02:55:25;15.00;;;6.80;;
32321;SDS011;61553;48.994;8.940;2022-11-10T02:57:51;14.52;;;6.43;;
32321;SDS011;61553;48.994;8.940;2022-11-10T03:00:17;14.82;;;6.63;;
32321;SDS011;61553;48.994;8.940;2022-11-10T03:02:43;18.35;;;6.90;;
32321;SDS011;61553;48.994;8.940;2022-11-10T03:05:09;17.42;;;7.13;;
32321;SDS011;61553;48.994;8.940;2022-11-10T03:07:34;22.33;;;6.90;;
32321;SDS011;61553;48.994;8.940;2022-11-10T03:10:00;16.08;;;7.38;;
32321;SDS011;61553;48.994;8.940;2022-11-10T03:12:26;11.60;;;6.55;;
32321;SDS011;61553;48.994;8.940;2022-11-10T03:14:52;13.25;;;6.13;;
32321;SDS011;61553;48.994;8.940;2022-11-10T03:17:18;10.93;;;5.68;;
32321;SDS011;61553;48.994;8.940;2022-11-10T03:19:43;12.35;;;5.70;;
32321;SDS011;61553;48.994;8.940;2022-11-10T03:22:09;12.75;;;5.63;;
32321;SDS011;61553;48.994;8.940;2022-11-10T03:24:34;10.60;;;5.28;;
32321;SDS011;61553;48.994;8.940;2022-11-10T03:27:00;10.82;;;5.78;;
32321;SDS011;61553;48.994;8.940;2022-11-10T03:29:26;13.50;;;5.03;;
32321;SDS011;61553;48.994;8.940;2022-11-10T03:31:51;11.48;;;4.93;;
32321;SDS011;61553;48.994;8.940;2022-11-10T03:34:17;11.75;;;5.63;;
32321;SDS011;61553;48.994;8.940;2022-11-10T03:36:43;9.82;;;4.25;;
32321;SDS011;61553;48.994;8.940;2022-11-10T03:39:08;8.70;;;4.70;;
32321;SDS011;61553;48.994;8.940;2022-11-10T03:41:34;8.50;;;4.43;;
32321;SDS011;61553;48.994;8.940;2022-11-10T03:44:00;10.65;;;4.63;;
32321;SDS011;61553;48.994;8.940;2022-11-10T03:46:25;10.60;;;5.85;;
32321;SDS011;61553;48.994;8.940;2022-11-10T03:48:51;10.00;;;5.53;;
32321;SDS011;61553;48.994;8.940;2022-11-10T03:51:17;12.73;;;6.45;;
32321;SDS011;61553;48.994;8.940;2022-11-10T03:53:42;11.77;;;5.93;;
32321;SDS011;61553;48.994;8.940;2022-11-10T03:56:08;12.13;;;5.30;;
32321;SDS011;61553;48.994;8.940;2022-11-10T03:58:33;11.23;;;4.93;;
32321;SDS011;61553;48.994;8.940;2022-11-10T04:00:59;8.82;;;4.85;;
32321;SDS011;61553;48.994;8.940;2022-11-10T04:03:25;12.15;;;5.78;;
32321;SDS011;61553;48.994;8.940;2022-11-10T04:05:50;8.13;;;5.03;;
32321;SDS011;61553;48.994;8.940;2022-11-10T04:08:34;10.10;;;5.15;;
32321;SDS011;61553;48.994;8.940;2022-11-10T04:11:19;17.88;;;6.03;;
32321;SDS011;61553;48.994;8.940;2022-11-10T04:14:03;20.35;;;7.72;;
32321;SDS011;61553;48.994;8.940;2022-11-10T04:16:48;11.25;;;6.63;;
32321;SDS011;61553;48.994;8.940;2022-11-10T04:19:14;16.45;;;9.05;;
32321;SDS011;61553;48.994;8.940;2022-11-10T04:21:39;15.27;;;8.38;;
32321;SDS011;61553;48.994;8.940;2022-11-10T04:24:05;16.45;;;8.35;;
32321;SDS011;61553;48.994;8.940;2022-11-10T04:26:31;13.43;;;7.55;;
32321;SDS011;61553;48.994;8.940;2022-11-10T04:29:02;17.52;;;6.57;;
32321;SDS011;61553;48.994;8.940;2022-11-10T04:31:30;15.98;;;7.10;;
32321;SDS011;61553;48.994;8.940;2022-11-10T04:33:57;11.07;;;6.00;;
32321;SDS011;61553;48.994;8.940;2022-11-10T04:36:24;10.07;;;5.97;;
32321;SDS011;61553;48.994;8.940;2022-11-10T04:38:52;13.32;;;6.95;;
32321;SDS011;61553;48.994;8.940;2022-11-10T04:41:19;9.50;;;5.65;;
32321;SDS011;61553;48.994;8.940;2022-11-10T04:43:45;15.68;;;6.40;;
32321;SDS011;61553;48.994;8.940;2022-11-10T04:46:21;10.15;;;5.03;;
32321;SDS011;61553;48.994;8.940;2022-11-10T04:48:57;8.23;;;4.95;;
32321;SDS011;61553;48.994;8.940;2022-11-10T04:51:25;14.93;;;6.35;;
32321;SDS011;61553;48.994;8.940;2022-11-10T04:54:09;9.77;;;5.35;;
32321;SDS011;61553;48.994;8.940;2022-11-10T04:56:35;9.70;;;5.38;;
32321;SDS011;61553;48.994;8.940;2022-11-10T04:59:01;9.38;;;5.25;;
32321;SDS011;61553;48.994;8.940;2022-11-10T05:01:27;10.25;;;4.65;;
32321;SDS011;61553;48.994;8.940;2022-11-10T05:03:53;7.63;;;4.13;;
32321;SDS011;61553;48.994;8.940;2022-11-10T05:06:19;9.05;;;4.15;;
32321;SDS011;61553;48.994;8.940;2022-11-10T05:08:45;8.27;;;4.57;;
32321;SDS011;61553;48.994;8.940;2022-11-10T05:11:11;8.88;;;4.45;;
32321;SDS011;61553;48.994;8.940;2022-11-10T05:13:38;10.63;;;4.65;;
32321;SDS011;61553;48.994;8.940;2022-11-10T05:16:03;9.07;;;4.60;;
32321;SDS011;61553;48.994;8.940;2022-11-10T05:18:30;9.23;;;4.70;;
32321;SDS011;61553;48.994;8.940;2022-11-10T05:20:56;15.23;;;5.88;;
32321;SDS011;61553;48.994;8.940;2022-11-10T05:23:21;13.25;;;5.43;;
32321;SDS011;61553;48.994;8.940;2022-11-10T05:26:05;15.52;;;5.95;;
32321;SDS011;61553;48.994;8.940;2022-11-10T05:28:31;10.13;;;5.18;;
32321;SDS011;61553;48.994;8.940;2022-11-10T05:30:57;13.98;;;5.72;;
32321;SDS011;61553;48.994;8.940;2022-11-10T05:33:23;10.77;;;5.68;;
32321;SDS011;61553;48.994;8.940;2022-11-10T05:35:49;17.33;;;7.07;;
32321;SDS011;61553;48.994;8.940;2022-11-10T05:38:15;16.80;;;7.93;;
32321;SDS011;61553;48.994;8.940;2022-11-10T05:40:41;16.98;;;8.93;;
32321;SDS011;61553;48.994;8.940;2022-11-10T05:43:06;14.45;;;6.85;;
32321;SDS011;61553;48.994;8.940;2022-11-10T05:45:32;20.25;;;7.40;;
32321;SDS011;61553;48.994;8.940;2022-11-10T05:47:58;17.42;;;5.85;;
32321;SDS011;61553;48.994;8.940;2022-11-10T05:50:23;14.38;;;6.63;;
32321;SDS011;61553;48.994;8.940;2022-11-10T05:52:52;14.90;;;6.07;;
32321;SDS011;61553;48.994;8.940;2022-11-10T05:55:23;19.35;;;6.20;;
32321;SDS011;61553;48.994;8.940;2022-11-10T05:57:51;53.72;;;9.30;;
32321;SDS011;61553;48.994;8.940;2022-11-10T06:00:21;24.05;;;6.97;;
32321;SDS011;61553;48.994;8.940;2022-11-10T06:03:01;21.50;;;6.25;;
32321;SDS011;61553;48.994;8.940;2022-11-10T06:05:33;13.75;;;6.70;;
32321;SDS011;61553;48.994;8.940;2022-11-10T06:08:00;16.35;;;7.03;;
32321;SDS011;61553;48.994;8.940;2022-11-10T06:10:26;10.95;;;5.38;;
32321;SDS011;61553;48.994;8.940;2022-11-10T06:12:52;8.73;;;4.75;;
32321;SDS011;61553;48.994;8.940;2022-11-10T06:15:18;13.50;;;7.05;;
32321;SDS011;61553;48.994;8.940;2022-11-10T06:17:44;17.13;;;7.97;;
32321;SDS011;61553;48.994;8.940;2022-11-10T06:20:11;10.93;;;6.15;;
32321;SDS011;61553;48.994;8.940;2022-11-10T06:22:38;8.15;;;4.88;;
32321;SDS011;61553;48.994;8.940;2022-11-10T06:25:05;7.63;;;4.53;;
32321;SDS011;61553;48.994;8.940;2022-11-10T06:27:31;8.35;;;4.43;;
32321;SDS011;61553;48.994;8.940;2022-11-10T06:29:56;7.85;;;4.47;;
32321;SDS011;61553;48.994;8.940;2022-11-10T06:32:22;5.75;;;3.70;;
32321;SDS011;61553;48.994;8.940;2022-11-10T06:34:48;8.55;;;3.40;;
32321;SDS011;61553;48.994;8.940;2022-11-10T06:37:13;13.98;;;4.05;;
32321;SDS011;61553;48.994;8.940;2022-11-10T06:39:39;7.60;;;3.47;;
32321;SDS011;61553;48.994;8.940;2022-11-10T06:42:05;8.60;;;4.20;;
32321;SDS011;61553;48.994;8.940;2022-11-10T06:44:30;9.68;;;4.28;;
32321;SDS011;61553;48.994;8.940;2022-11-10T06:46:56;8.15;;;3.70;;
32321;SDS011;61553;48.994;8.940;2022-11-10T06:49:21;7.00;;;3.65;;
32321;SDS011;61553;48.994;8.940;2022-11-10T06:51:47;12.60;;;4.18;;
32321;SDS011;61553;48.994;8.940;2022-11-10T06:54:13;10.40;;;5.25;;
32321;SDS011;61553;48.994;8.940;2022-11-10T06:56:38;26.92;;;11.93;;
32321;SDS011;61553;48.994;8.940;2022-11-10T06:59:04;61.97;;;26.65;;
32321;SDS011;61553;48.994;8.940;2022-11-10T07:01:29;52.15;;;21.50;;
32321;SDS011;61553;48.994;8.940;2022-11-10T07:03:55;37.13;;;15.77;;
32321;SDS011;61553;48.994;8.940;2022-11-10T07:06:21;46.78;;;16.95;;
32321;SDS011;61553;48.994;8.940;2022-11-10T07:08:47;26.52;;;12.20;;
32321;SDS011;61553;48.994;8.940;2022-11-10T07:11:14;39.72;;;13.35;;
32321;SDS011;61553;48.994;8.940;2022-11-10T07:13:40;35.95;;;12.82;;
32321;SDS011;61553;48.994;8.940;2022-11-10T07:16:06;23.25;;;11.35;;
32321;SDS011;61553;48.994;8.940;2022-11-10T07:18:33;27.38;;;12.07;;
32321;SDS011;61553;48.994;8.940;2022-11-10T07:21:02;31.05;;;13.02;;
32321;SDS011;61553;48.994;8.940;2022-11-10T07:23:31;27.33;;;11.52;;
32321;SDS011;61553;48.994;8.940;2022-11-10T07:26:00;25.38;;;12.80;;
32321;SDS011;61553;48.994;8.940;2022-11-10T07:28:26;28.27;;;13.65;;
32321;SDS011;61553;48.994;8.940;2022-11-10T07:30:53;33.63;;;15.23;;
32321;SDS011;61553;48.994;8.940;2022-11-10T07:33:18;31.65;;;13.70;;
32321;SDS011;61553;48.994;8.940;2022-11-10T07:36:05;25.98;;;12.73;;
32321;SDS011;61553;48.994;8.940;2022-11-10T07:38:31;36.53;;;14.18;;
32321;SDS011;61553;48.994;8.940;2022-11-10T07:40:57;27.58;;;11.13;;
32321;SDS011;61553;48.994;8.940;2022-11-10T07:43:23;22.13;;;9.00;;
32321;SDS011;61553;48.994;8.940;2022-11-10T07:45:49;14.27;;;6.47;;
32321;SDS011;61553;48.994;8.940;2022-11-10T07:48:16;14.98;;;5.82;;
32321;SDS011;61553;48.994;8.940;2022-11-10T07:50:42;13.43;;;6.18;;
32321;SDS011;61553;48.994;8.940;2022-11-10T07:53:09;16.27;;;7.15;;
32321;SDS011;61553;48.994;8.940;2022-11-10T07:55:42;18.38;;;10.07;;
32321;SDS011;61553;48.994;8.940;2022-11-10T07:58:09;143.15;;;19.27;;
32321;SDS011;61553;48.994;8.940;2022-11-10T08:00:36;49.40;;;12.18;;
32321;SDS011;61553;48.994;8.940;2022-11-10T08:05:33;27.98;;;7.47;;
32321;SDS011;61553;48.994;8.940;2022-11-10T08:07:59;9.60;;;5.60;;
32321;SDS011;61553;48.994;8.940;2022-11-10T08:10:26;10.48;;;4.50;;
32321;SDS011;61553;48.994;8.940;2022-11-10T08:12:53;7.75;;;3.17;;
32321;SDS011;61553;48.994;8.940;2022-11-10T08:15:20;7.85;;;4.45;;
32321;SDS011;61553;48.994;8.940;2022-11-10T08:17:45;6.22;;;3.60;;
32321;SDS011;61553;48.994;8.940;2022-11-10T08:20:11;11.13;;;4.07;;
32321;SDS011;61553;48.994;8.940;2022-11-10T08:22:36;7.00;;;3.20;;
32321;SDS011;61553;48.994;8.940;2022-11-10T08:25:02;6.38;;;2.92;;
32321;SDS011;61553;48.994;8.940;2022-11-10T08:27:28;6.80;;;3.72;;
32321;SDS011;61553;48.994;8.940;2022-11-10T08:29:54;5.97;;;2.85;;
32321;SDS011;61553;48.994;8.940;2022-11-10T08:32:19;8.00;;;2.97;;
32321;SDS011;61553;48.994;8.940;2022-11-10T08:34:45;7.30;;;2.90;;
32321;SDS011;61553;48.994;8.940;2022-11-10T08:37:11;6.38;;;3.05;;
32321;SDS011;61553;48.994;8.940;2022-11-10T08:39:36;8.57;;;2.78;;
32321;SDS011;61553;48.994;8.940;2022-11-10T08:42:02;7.22;;;3.25;;
32321;SDS011;61553;48.994;8.940;2022-11-10T08:44:28;5.68;;;2.50;;
32321;SDS011;61553;48.994;8.940;2022-11-10T08:46:53;6.38;;;2.97;;
32321;SDS011;61553;48.994;8.940;2022-11-10T08:49:19;6.25;;;3.20;;
32321;SDS011;61553;48.994;8.940;2022-11-10T08:51:45;9.80;;;5.95;;
32321;SDS011;61553;48.994;8.940;2022-11-10T08:54:10;8.70;;;4.80;;
32321;SDS011;61553;48.994;8.940;2022-11-10T08:56:36;11.10;;;6.00;;
32321;SDS011;61553;48.994;8.940;2022-11-10T08:59:01;10.90;;;6.22;;
32321;SDS011;61553;48.994;8.940;2022-11-10T09:01:27;9.68;;;5.75;;
32321;SDS011;61553;48.994;8.940;2022-11-10T09:03:53;11.38;;;5.05;;
32321;SDS011;61553;48.994;8.940;2022-11-10T09:06:18;10.32;;;4.03;;
32321;SDS011;61553;48.994;8.940;2022-11-10T09:08:44;10.00;;;2.97;;
32321;SDS011;61553;48.994;8.940;2022-11-10T09:11:10;11.25;;;3.10;;
32321;SDS011;61553;48.994;8.940;2022-11-10T09:13:35;8.07;;;3.10;;
32321;SDS011;61553;48.994;8.940;2022-11-10T09:16:01;9.43;;;3.03;;
32321;SDS011;61553;48.994;8.940;2022-11-10T09:18:28;7.70;;;3.08;;
32321;SDS011;61553;48.994;8.940;2022-11-10T09:20:54;9.43;;;2.70;;
32321;SDS011;61553;48.994;8.940;2022-11-10T09:23:20;12.20;;;3.55;;
32321;SDS011;61553;48.994;8.940;2022-11-10T09:25:49;8.23;;;2.95;;
32321;SDS011;61553;48.994;8.940;2022-11-10T09:28:16;8.73;;;3.05;;
32321;SDS011;61553;48.994;8.940;2022-11-10T09:30:46;8.75;;;3.22;;
32321;SDS011;61553;48.994;8.940;2022-11-10T09:33:15;8.13;;;2.90;;
32321;SDS011;61553;48.994;8.940;2022-11-10T09:35:41;6.03;;;2.70;;
32321;SDS011;61553;48.994;8.940;2022-11-10T09:38:07;13.90;;;3.53;;
32321;SDS011;61553;48.994;8.940;2022-11-10T09:40:40;9.15;;;2.67;;
32321;SDS011;61553;48.994;8.940;2022-11-10T09:43:41;10.50;;;3.05;;
32321;SDS011;61553;48.994;8.940;2022-11-10T09:46:34;13.35;;;3.00;;
32321;SDS011;61553;48.994;8.940;2022-11-10T09:49:09;9.90;;;2.75;;
32321;SDS011;61553;48.994;8.940;2022-11-10T09:52:07;15.15;;;3.40;;
32321;SDS011;61553;48.994;8.940;2022-11-10T09:54:42;7.78;;;2.50;;
32321;SDS011;61553;48.994;8.940;2022-11-10T09:57:14;7.32;;;2.70;;
32321;SDS011;61553;48.994;8.940;2022-11-10T09:59:43;10.20;;;2.90;;
32321;SDS011;61553;48.994;8.940;2022-11-10T10:13:04;5.32;;;2.20;;
32321;SDS011;61553;48.994;8.940;2022-11-10T10:18:43;10.23;;;2.88;;
32321;SDS011;61553;48.994;8.940;2022-11-10T10:23:58;10.15;;;2.53;;
32321;SDS011;61553;48.994;8.940;2022-11-10T10:26:30;9.32;;;2.53;;
32321;SDS011;61553;48.994;8.940;2022-11-10T10:29:04;8.80;;;2.72;;
32321;SDS011;61553;48.994;8.940;2022-11-10T10:31:35;8.38;;;3.08;;
32321;SDS011;61553;48.994;8.940;2022-11-10T10:34:10;8.07;;;2.42;;
32321;SDS011;61553;48.994;8.940;2022-11-10T10:36:38;8.52;;;2.45;;
32321;SDS011;61553;48.994;8.940;2022-11-10T10:39:05;9.77;;;2.40;;
32321;SDS011;61553;48.994;8.940;2022-11-10T10:41:36;6.60;;;2.17;;
32321;SDS011;61553;48.994;8.940;2022-11-10T10:44:08;9.82;;;2.42;;
32321;SDS011;61553;48.994;8.940;2022-11-10T10:46:42;8.75;;;2.03;;
32321;SDS011;61553;48.994;8.940;2022-11-10T10:49:20;8.55;;;2.42;;
32321;SDS011;61553;48.994;8.940;2022-11-10T10:51:46;6.78;;;1.90;;
32321;SDS011;61553;48.994;8.940;2022-11-10T10:54:28;7.90;;;1.65;;
32321;SDS011;61553;48.994;8.940;2022-11-10T10:59:46;6.38;;;1.83;;
32321;SDS011;61553;48.994;8.940;2022-11-10T11:02:25;6.05;;;1.95;;
32321;SDS011;61553;48.994;8.940;2022-11-10T11:05:28;5.65;;;2.08;;
32321;SDS011;61553;48.994;8.940;2022-11-10T11:07:57;9.00;;;2.07;;
32321;SDS011;61553;48.994;8.940;2022-11-10T11:10:31;7.93;;;1.75;;
32321;SDS011;61553;48.994;8.940;2022-11-10T11:13:17;7.63;;;1.55;;
32321;SDS011;61553;48.994;8.940;2022-11-10T11:15:55;8.07;;;1.83;;
32321;SDS011;61553;48.994;8.940;2022-11-10T11:18:22;8.48;;;2.10;;
32321;SDS011;61553;48.994;8.940;2022-11-10T11:37:38;6.28;;;1.75;;
32321;SDS011;61553;48.994;8.940;2022-11-10T11:43:08;6.97;;;1.45;;
32321;SDS011;61553;48.994;8.940;2022-11-10T11:56:40;7.45;;;1.80;;
32321;SDS011;61553;48.994;8.940;2022-11-10T12:15:54;8.65;;;1.60;;
32321;SDS011;61553;48.994;8.940;2022-11-10T12:18:36;6.78;;;1.33;;
32321;SDS011;61553;48.994;8.940;2022-11-10T12:26:32;6.25;;;1.80;;
32321;SDS011;61553;48.994;8.940;2022-11-10T12:29:23;6.18;;;1.50;;
32321;SDS011;61553;48.994;8.940;2022-11-10T12:32:43;5.32;;;1.27;;
32321;SDS011;61553;48.994;8.940;2022-11-10T12:34:55;5.75;;;1.25;;
32321;SDS011;61553;48.994;8.940;2022-11-10T12:40:31;10.02;;;2.05;;
32321;SDS011;61553;48.994;8.940;2022-11-10T12:42:58;9.00;;;1.83;;
32321;SDS011;61553;48.994;8.940;2022-11-10T12:45:34;8.30;;;1.88;;
32321;SDS011;61553;48.994;8.940;2022-11-10T12:48:05;9.48;;;1.63;;
32321;SDS011;61553;48.994;8.940;2022-11-10T12:53:14;5.72;;;1.65;;
32321;SDS011;61553;48.994;8.940;2022-11-10T12:55:52;8.57;;;1.88;;
32321;SDS011;61553;48.994;8.940;2022-11-10T12:58:36;5.80;;;1.30;;
32321;SDS011;61553;48.994;8.940;2022-11-10T13:01:05;7.57;;;1.20;;
32321;SDS011;61553;48.994;8.940;2022-11-10T13:03:38;5.22;;;1.23;;
32321;SDS011;61553;48.994;8.940;2022-11-10T13:06:26;5.97;;;1.38;;
32321;SDS011;61553;48.994;8.940;2022-11-10T13:08:55;2.88;;;0.90;;
32321;SDS011;61553;48.994;8.940;2022-11-10T13:13:55;8.27;;;1.63;;
32321;SDS011;61553;48.994;8.940;2022-11-10T13:19:09;7.03;;;0.90;;
32321;SDS011;61553;48.994;8.940;2022-11-10T13:24:30;4.43;;;1.23;;
32321;SDS011;61553;48.994;8.940;2022-11-10T13:34:39;5.95;;;1.50;;
32321;SDS011;61553;48.994;8.940;2022-11-10T13:42:41;5.65;;;1.10;;
32321;SDS011;61553;48.994;8.940;2022-11-10T13:58:51;3.58;;;1.10;;
32321;SDS011;61553;48.994;8.940;2022-11-10T14:06:15;5.07;;;1.00;;
32321;SDS011;61553;48.994;8.940;2022-11-10T14:09:30;5.63;;;1.42;;
32321;SDS011;61553;48.994;8.940;2022-11-10T14:11:55;6.50;;;1.23;;
32321;SDS011;61553;48.994;8.940;2022-11-10T14:17:14;6.05;;;1.20;;
32321;SDS011;61553;48.994;8.940;2022-11-10T14:19:44;6.10;;;1.17;;
32321;SDS011;61553;48.994;8.940;2022-11-10T14:27:48;4.93;;;1.40;;
32321;SDS011;61553;48.994;8.940;2022-11-10T14:30:19;3.17;;;1.15;;
32321;SDS011;61553;48.994;8.940;2022-11-10T14:32:54;5.22;;;1.40;;
32321;SDS011;61553;48.994;8.940;2022-11-10T14:35:21;4.55;;;1.27;;
32321;SDS011;61553;48.994;8.940;2022-11-10T14:37:49;4.70;;;1.25;;
32321;SDS011;61553;48.994;8.940;2022-11-10T14:40:16;3.90;;;1.40;;
32321;SDS011;61553;48.994;8.940;2022-11-10T14:42:44;8.23;;;1.17;;
32321;SDS011;61553;48.994;8.940;2022-11-10T14:45:15;4.68;;;1.20;;
32321;SDS011;61553;48.994;8.940;2022-11-10T14:47:49;3.05;;;1.25;;
32321;SDS011;61553;48.994;8.940;2022-11-10T14:50:28;5.38;;;1.13;;
32321;SDS011;61553;48.994;8.940;2022-11-10T14:55:44;3.67;;;1.00;;
32321;SDS011;61553;48.994;8.940;2022-11-10T14:58:11;5.68;;;1.20;;
32321;SDS011;61553;48.994;8.940;2022-11-10T15:00:42;4.05;;;1.20;;
32321;SDS011;61553;48.994;8.940;2022-11-10T15:03:11;4.57;;;1.50;;
32321;SDS011;61553;48.994;8.940;2022-11-10T15:05:42;6.15;;;1.38;;
32321;SDS011;61553;48.994;8.940;2022-11-10T15:08:08;5.75;;;1.45;;
32321;SDS011;61553;48.994;8.940;2022-11-10T15:15:36;7.00;;;1.30;;
32321;SDS011;61553;48.994;8.940;2022-11-10T15:18:03;7.88;;;1.30;;
32321;SDS011;61553;48.994;8.940;2022-11-10T15:20:30;6.60;;;1.40;;
32321;SDS011;61553;48.994;8.940;2022-11-10T15:23:01;6.47;;;1.80;;
32321;SDS011;61553;48.994;8.940;2022-11-10T15:25:38;6.10;;;1.23;;
32321;SDS011;61553;48.994;8.940;2022-11-10T15:28:10;3.03;;;1.25;;
32321;SDS011;61553;48.994;8.940;2022-11-10T15:30:52;4.75;;;1.40;;
32321;SDS011;61553;48.994;8.940;2022-11-10T15:33:23;10.57;;;1.70;;
32321;SDS011;61553;48.994;8.940;2022-11-10T15:35:50;5.53;;;1.48;;
32321;SDS011;61553;48.994;8.940;2022-11-10T15:41:03;6.07;;;1.52;;
32321;SDS011;61553;48.994;8.940;2022-11-10T15:43:36;6.75;;;1.48;;
32321;SDS011;61553;48.994;8.940;2022-11-10T15:46:10;5.88;;;2.22;;
32321;SDS011;61553;48.994;8.940;2022-11-10T15:48:40;3.47;;;1.20;;
32321;SDS011;61553;48.994;8.940;2022-11-10T15:51:08;3.65;;;1.30;;
32321;SDS011;61553;48.994;8.940;2022-11-10T15:53:43;6.50;;;1.40;;
32321;SDS011;61553;48.994;8.940;2022-11-10T15:56:14;6.90;;;1.38;;
32321;SDS011;61553;48.994;8.940;2022-11-10T15:58:45;6.50;;;1.30;;
32321;SDS011;61553;48.994;8.940;2022-11-10T16:01:13;4.78;;;1.17;;
32321;SDS011;61553;48.994;8.940;2022-11-10T16:03:40;6.97;;;2.50;;
32321;SDS011;61553;48.994;8.940;2022-11-10T16:06:07;9.18;;;3.20;;
32321;SDS011;61553;48.994;8.940;2022-11-10T16:08:36;45.00;;;22.52;;
32321;SDS011;61553;48.994;8.940;2022-11-10T16:11:02;32.20;;;15.57;;
32321;SDS011;61553;48.994;8.940;2022-11-10T16:13:28;35.67;;;17.42;;
32321;SDS011;61553;48.994;8.940;2022-11-10T16:15:56;15.18;;;5.22;;
32321;SDS011;61553;48.994;8.940;2022-11-10T16:18:23;10.65;;;4.72;;
32321;SDS011;61553;48.994;8.940;2022-11-10T16:20:51;8.95;;;4.03;;
32321;SDS011;61553;48.994;8.940;2022-11-10T16:23:16;7.15;;;1.85;;
32321;SDS011;61553;48.994;8.940;2022-11-10T16:25:43;3.50;;;1.10;;
32321;SDS011;61553;48.994;8.940;2022-11-10T16:28:10;3.85;;;1.08;;
32321;SDS011;61553;48.994;8.940;2022-11-10T16:30:50;4.93;;;1.80;;
32321;SDS011;61553;48.994;8.940;2022-11-10T16:33:18;14.73;;;5.72;;
32321;SDS011;61553;48.994;8.940;2022-11-10T16:35:47;12.80;;;4.45;;
32321;SDS011;61553;48.994;8.940;2022-11-10T16:38:27;7.72;;;2.80;;
32321;SDS011;61553;48.994;8.940;2022-11-10T16:41:01;9.85;;;2.58;;
32321;SDS011;61553;48.994;8.940;2022-11-10T16:43:31;6.63;;;2.78;;
32321;SDS011;61553;48.994;8.940;2022-11-10T16:45:58;6.32;;;3.15;;
32321;SDS011;61553;48.994;8.940;2022-11-10T16:48:27;9.73;;;2.45;;
32321;SDS011;61553;48.994;8.940;2022-11-10T16:50:59;5.85;;;2.83;;
32321;SDS011;61553;48.994;8.940;2022-11-10T16:53:29;7.00;;;2.38;;
32321;SDS011;61553;48.994;8.940;2022-11-10T16:55:56;7.93;;;2.00;;
32321;SDS011;61553;48.994;8.940;2022-11-10T16:58:25;12.63;;;2.60;;
32321;SDS011;61553;48.994;8.940;2022-11-10T17:00:52;6.78;;;3.00;;
32321;SDS011;61553;48.994;8.940;2022-11-10T17:03:35;13.15;;;6.50;;
32321;SDS011;61553;48.994;8.940;2022-11-10T17:06:04;16.48;;;10.75;;
32321;SDS011;61553;48.994;8.940;2022-11-10T17:08:30;14.82;;;9.02;;
32321;SDS011;61553;48.994;8.940;2022-11-10T17:10:59;12.93;;;6.97;;
32321;SDS011;61553;48.994;8.940;2022-11-10T17:13:25;15.50;;;8.13;;
32321;SDS011;61553;48.994;8.940;2022-11-10T17:15:52;13.32;;;6.43;;
32321;SDS011;61553;48.994;8.940;2022-11-10T17:18:22;14.02;;;7.78;;
32321;SDS011;61553;48.994;8.940;2022-11-10T17:20:49;27.33;;;20.08;;